Time;durP1;ratioP1;P1;durP2;ratioP2;P2;SDS_P1;SDS_P2;PMS_P1;PMS_P2;Temp;Humidity;BMP_temperature;BMP_pressure;BME280_temperature;BME280_humidity;BME280_pressure;Samples;Min_cycle;Max_cycle;Signal;HPM_P1;HPM_P2
2021/11/01 00:00:37;;;;;;;;;4.00;3.00;;;;;;;;5056752;28;45714;-69
2021/11/01 00:03:02;;;;;;;;;4.50;2.00;;;;;;;;5067009;27;45748;-69
2021/11/01 00:05:28;;;;;;;;;5.00;3.25;;;;;;;;5066772;28;45598;-69
2021/11/01 00:07:53;;;;;;;;;1.67;1.67;;;;;;;;5067784;27;45393;-70
2021/11/01 00:10:19;;;;;;;;;3.50;2.00;;;;;;;;5055036;28;45362;-69
2021/11/01 00:12:45;;;;;;;;;5.00;2.00;;;;;;;;5070841;27;45363;-69
2021/11/01 00:15:10;;;;;;;;;5.00;2.25;;;;;;;;5067517;27;47699;-69
2021/11/01 00:17:36;;;;;;;;;7.75;2.00;;;;;;;;5063534;27;45504;-69
2021/11/01 00:20:01;;;;;;;;;4.50;2.00;;;;;;;;5066354;27;45453;-69
2021/11/01 00:22:27;;;;;;;;;5.00;2.00;;;;;;;;5063817;28;47046;-69
2021/11/01 00:24:52;;;;;;;;;3.67;2.00;;;;;;;;5065679;27;45771;-69
2021/11/01 00:27:18;;;;;;;;;3.50;3.00;;;;;;;;5063220;27;45800;-69
2021/11/01 00:29:43;;;;;;;;;2.00;2.00;;;;;;;;5065288;27;45685;-69
2021/11/01 00:32:09;;;;;;;;;3.00;2.00;;;;;;;;5064920;27;45476;-69
2021/11/01 00:34:34;;;;;;;;;3.50;1.00;;;;;;;;5061167;28;46037;-69
2021/11/01 00:36:59;;;;;;;;;2.67;1.00;;;;;;;;5064299;28;45828;-69
2021/11/01 00:39:24;;;;;;;;;4.00;2.33;;;;;;;;5071264;27;46573;-69
2021/11/01 00:41:50;;;;;;;;;3.00;1.00;;;;;;;;5060905;27;45425;-69
2021/11/01 00:44:15;;;;;;;;;5.00;2.75;;;;;;;;5059796;27;46385;-69
2021/11/01 00:46:40;;;;;;;;;3.00;2.67;;;;;;;;5062325;28;45594;-69
2021/11/01 00:49:06;;;;;;;;;1.67;1.00;;;;;;;;5066103;28;45489;-69
2021/11/01 00:51:36;;;;;;;;;5.25;2.00;;;;;;;;5069367;27;45424;-69
2021/11/01 00:54:01;;;;;;;;;3.00;1.00;;;;;;;;5065512;28;47331;-69
2021/11/01 00:56:26;;;;;;;;;2.00;2.00;;;;;;;;5065717;27;45568;-69
2021/11/01 00:58:52;;;;;;;;;4.00;1.00;;;;;;;;5068577;28;45530;-69
2021/11/01 01:01:17;;;;;;;;;6.33;3.00;;;;;;;;5070432;27;45342;-69
2021/11/01 01:03:43;;;;;;;;;4.33;2.67;;;;;;;;5063937;27;46557;-69
2021/11/01 01:06:09;;;;;;;;;6.75;3.00;;;;;;;;5072358;27;45729;-69
2021/11/01 01:08:34;;;;;;;;;3.00;3.00;;;;;;;;5070618;27;45378;-69
2021/11/01 01:10:59;;;;;;;;;0.00;0.00;;;;;;;;5068758;28;45461;-69
2021/11/01 01:13:28;;;;;;;;;2.50;2.00;;;;;;;;5072399;27;46330;-69
2021/11/01 01:16:04;;;;;;;;;5.50;2.25;;;;;;;;5060550;27;45421;-69
2021/11/01 01:18:34;;;;;;;;;5.00;2.50;;;;;;;;5059217;28;45595;-69
2021/11/01 01:21:02;;;;;;;;;5.00;2.00;;;;;;;;5073714;27;45454;-69
2021/11/01 01:23:27;;;;;;;;;5.25;2.00;;;;;;;;5068162;27;46318;-69
2021/11/01 01:25:55;;;;;;;;;3.00;1.75;;;;;;;;5058089;28;45438;-69
2021/11/01 01:28:20;;;;;;;;;3.50;2.00;;;;;;;;5076530;27;45476;-69
2021/11/01 01:30:45;;;;;;;;;1.00;1.00;;;;;;;;5069085;28;45537;-69
2021/11/01 01:33:11;;;;;;;;;2.00;2.00;;;;;;;;5080132;27;46073;-69
2021/11/01 01:35:39;;;;;;;;;3.00;1.33;;;;;;;;5082235;27;46334;-69
2021/11/01 01:38:05;;;;;;;;;4.75;1.75;;;;;;;;5075178;27;45432;-69
2021/11/01 01:40:30;;;;;;;;;2.75;1.00;;;;;;;;5074595;27;45442;-69
2021/11/01 01:42:56;;;;;;;;;4.00;2.33;;;;;;;;5078929;27;45537;-69
2021/11/01 01:45:21;;;;;;;;;12.00;2.00;;;;;;;;5089159;27;45701;-69
2021/11/01 01:47:47;;;;;;;;;1.00;1.00;;;;;;;;5084162;27;45459;-69
2021/11/01 01:50:13;;;;;;;;;1.50;1.25;;;;;;;;5082278;27;45595;-69
2021/11/01 01:52:39;;;;;;;;;4.00;2.00;;;;;;;;5075540;27;45551;-69
2021/11/01 01:55:08;;;;;;;;;2.75;2.00;;;;;;;;5077184;27;45842;-69
2021/11/01 01:57:34;;;;;;;;;4.00;1.00;;;;;;;;5084655;27;45767;-69
2021/11/01 01:59:59;;;;;;;;;2.25;1.00;;;;;;;;5078997;27;45660;-69
2021/11/01 02:02:25;;;;;;;;;4.00;1.67;;;;;;;;5079503;27;45559;-69
2021/11/01 02:04:50;;;;;;;;;2.25;1.00;;;;;;;;5068492;27;45489;-69
2021/11/01 02:07:35;;;;;;;;;2.00;1.00;;;;;;;;5072517;27;45440;-69
2021/11/01 02:10:02;;;;;;;;;2.25;2.00;;;;;;;;5075294;27;45380;-69
2021/11/01 02:12:35;;;;;;;;;1.25;1.00;;;;;;;;5081670;27;45705;-69
2021/11/01 02:15:05;;;;;;;;;4.50;1.25;;;;;;;;5063741;27;45521;-69
2021/11/01 02:17:31;;;;;;;;;3.00;1.00;;;;;;;;5073690;27;45566;-69
2021/11/01 02:20:00;;;;;;;;;3.00;1.75;;;;;;;;5067839;27;45302;-69
2021/11/01 02:22:32;;;;;;;;;4.00;1.00;;;;;;;;5089357;27;46732;-69
2021/11/01 02:25:02;;;;;;;;;8.50;1.00;;;;;;;;5074968;27;45803;-69
2021/11/01 02:27:30;;;;;;;;;5.00;2.25;;;;;;;;5096144;27;45391;-69
2021/11/01 02:29:55;;;;;;;;;1.50;1.00;;;;;;;;5079339;27;45360;-69
2021/11/01 02:32:21;;;;;;;;;1.50;1.00;;;;;;;;5075645;27;45528;-69
2021/11/01 02:34:46;;;;;;;;;3.25;1.25;;;;;;;;5074559;27;45617;-69
2021/11/01 02:37:12;;;;;;;;;4.25;1.75;;;;;;;;5073712;27;45508;-69
2021/11/01 02:39:51;;;;;;;;;1.75;1.00;;;;;;;;5080713;27;45348;-69
2021/11/01 02:42:16;;;;;;;;;2.00;1.00;;;;;;;;5074974;27;45691;-69
2021/11/01 02:44:52;;;;;;;;;1.25;0.00;;;;;;;;5079203;27;45510;-69
2021/11/01 02:47:17;;;;;;;;;2.00;1.50;;;;;;;;5077409;27;45296;-69
2021/11/01 02:49:42;;;;;;;;;2.00;1.00;;;;;;;;5078443;27;45447;-69
2021/11/01 02:52:08;;;;;;;;;3.00;1.00;;;;;;;;5075158;27;46550;-69
2021/11/01 02:54:33;;;;;;;;;5.00;2.67;;;;;;;;5084047;27;45562;-69
2021/11/01 02:56:59;;;;;;;;;1.33;0.67;;;;;;;;5078540;27;45426;-69
2021/11/01 02:59:25;;;;;;;;;5.25;1.00;;;;;;;;5076331;27;45569;-69
2021/11/01 03:01:50;;;;;;;;;3.00;0.00;;;;;;;;5064042;27;47237;-69
2021/11/01 03:04:15;;;;;;;;;6.33;2.33;;;;;;;;5085818;27;45443;-69
2021/11/01 03:06:41;;;;;;;;;2.67;1.00;;;;;;;;5079706;27;45264;-69
2021/11/01 03:09:06;;;;;;;;;2.00;2.00;;;;;;;;5088542;27;45575;-69
2021/11/01 03:11:31;;;;;;;;;4.00;1.00;;;;;;;;5072056;27;45504;-69
2021/11/01 03:13:57;;;;;;;;;1.00;1.00;;;;;;;;5079401;27;45396;-69
2021/11/01 03:16:24;;;;;;;;;2.00;0.00;;;;;;;;5073137;27;45509;-69
2021/11/01 03:19:00;;;;;;;;;0.75;0.75;;;;;;;;5072086;27;45815;-69
2021/11/01 03:21:26;;;;;;;;;1.50;1.00;;;;;;;;5070822;27;46393;-69
2021/11/01 03:23:52;;;;;;;;;1.75;0.00;;;;;;;;5079961;27;47637;-69
2021/11/01 03:26:21;;;;;;;;;5.25;1.00;;;;;;;;5083732;27;45465;-69
2021/11/01 03:28:50;;;;;;;;;1.25;1.00;;;;;;;;5076979;27;45404;-69
2021/11/01 03:31:15;;;;;;;;;1.50;0.00;;;;;;;;5071125;27;46396;-69
2021/11/01 03:33:41;;;;;;;;;3.00;1.00;;;;;;;;5062875;27;45377;-69
2021/11/01 03:36:07;;;;;;;;;2.25;0.00;;;;;;;;5073398;27;45453;-69
2021/11/01 03:38:34;;;;;;;;;8.00;1.00;;;;;;;;5076993;27;45503;-68
2021/11/01 03:41:06;;;;;;;;;4.75;1.25;;;;;;;;5078552;27;45694;-69
2021/11/01 03:43:36;;;;;;;;;5.50;2.00;;;;;;;;5077706;27;45801;-69
2021/11/01 03:46:03;;;;;;;;;3.50;3.00;;;;;;;;5073386;27;45696;-69
2021/11/01 03:48:35;;;;;;;;;3.75;1.00;;;;;;;;5079992;27;45621;-69
2021/11/01 03:51:05;;;;;;;;;1.50;1.00;;;;;;;;5081902;27;47420;-69
2021/11/01 03:53:31;;;;;;;;;0.75;0.75;;;;;;;;5074458;27;45896;-69
2021/11/01 03:55:56;;;;;;;;;4.00;0.25;;;;;;;;5073498;27;45669;-69
2021/11/01 03:58:21;;;;;;;;;7.33;2.00;;;;;;;;5073843;27;45445;-69
2021/11/01 04:00:47;;;;;;;;;1.50;1.00;;;;;;;;5067684;27;46176;-69
2021/11/01 04:03:12;;;;;;;;;3.00;2.00;;;;;;;;5079422;27;45697;-69
2021/11/01 04:05:38;;;;;;;;;2.75;0.50;;;;;;;;5073785;27;45519;-69
2021/11/01 04:08:03;;;;;;;;;0.75;0.75;;;;;;;;5076988;27;45459;-69
2021/11/01 04:10:29;;;;;;;;;2.75;1.75;;;;;;;;5077091;27;46281;-69
2021/11/01 04:12:54;;;;;;;;;4.00;2.25;;;;;;;;5074776;27;45551;-70
2021/11/01 04:15:23;;;;;;;;;0.25;0.25;;;;;;;;5078871;27;45251;-69
2021/11/01 04:22:47;;;;;;;;;1.00;1.00;;;;;;;;5084166;27;45476;-70
2021/11/01 04:25:12;;;;;;;;;2.75;1.75;;;;;;;;5074391;27;45565;-69
2021/11/01 04:27:37;;;;;;;;;5.00;2.00;;;;;;;;5075382;27;45407;-69
2021/11/01 04:30:05;;;;;;;;;0.75;0.75;;;;;;;;5076525;27;46305;-69
2021/11/01 04:35:02;;;;;;;;;1.00;0.00;;;;;;;;5074877;27;45394;-69
2021/11/01 04:37:29;;;;;;;;;6.50;3.00;;;;;;;;5068296;27;45706;-69
2021/11/01 04:53:08;;;;;;;;;1.50;0.50;;;;;;;;5074720;27;45489;-69
2021/11/01 04:55:34;;;;;;;;;1.50;0.50;;;;;;;;5065505;27;45606;-69
2021/11/01 04:57:59;;;;;;;;;0.75;0.00;;;;;;;;5073207;27;45300;-69
2021/11/01 05:00:25;;;;;;;;;1.00;0.00;;;;;;;;5089115;27;45405;-69
2021/11/01 05:02:59;;;;;;;;;1.75;0.25;;;;;;;;5082149;27;45558;-68
2021/11/01 05:05:24;;;;;;;;;3.50;1.25;;;;;;;;5075903;27;45568;-69
2021/11/01 05:07:50;;;;;;;;;4.25;0.75;;;;;;;;5079758;27;45550;-69
2021/11/01 05:12:46;;;;;;;;;1.50;1.00;;;;;;;;5075929;27;45337;-69
2021/11/01 05:15:25;;;;;;;;;0.33;0.33;;;;;;;;5081503;27;45445;-69
2021/11/01 05:17:58;;;;;;;;;0.25;0.00;;;;;;;;5066439;27;45491;-69
2021/11/01 05:22:54;;;;;;;;;1.00;0.00;;;;;;;;5086472;27;45446;-69
2021/11/01 05:25:29;;;;;;;;;3.25;1.50;;;;;;;;5062879;27;45722;-69
2021/11/01 05:35:57;;;;;;;;;2.00;0.00;;;;;;;;5065620;28;45518;-69
2021/11/01 05:38:23;;;;;;;;;0.00;0.00;;;;;;;;5063128;28;45733;-69
2021/11/01 05:40:48;;;;;;;;;1.33;0.00;;;;;;;;5052239;28;45610;-69
2021/11/01 05:43:13;;;;;;;;;1.67;0.33;;;;;;;;5039413;28;45503;-69
2021/11/01 05:45:38;;;;;;;;;1.00;1.00;;;;;;;;5056569;28;45358;-69
2021/11/01 05:48:03;;;;;;;;;1.67;1.67;;;;;;;;5056643;28;45561;-69
2021/11/01 05:50:31;;;;;;;;;1.00;1.00;;;;;;;;5052526;28;46700;-69
2021/11/01 05:52:58;;;;;;;;;3.75;1.00;;;;;;;;5058912;28;45441;-69
2021/11/01 05:58:10;;;;;;;;;3.75;0.00;;;;;;;;5048024;28;45472;-69
2021/11/01 06:03:28;;;;;;;;;3.75;1.00;;;;;;;;5045868;28;46031;-69
2021/11/01 06:06:40;;;;;;;;;1.25;1.00;;;;;;;;5053595;28;45357;-69
2021/11/01 06:13:55;;;;;;;;;1.50;1.50;;;;;;;;5070780;27;45341;-69
2021/11/01 06:16:21;;;;;;;;;7.50;0.00;;;;;;;;5077962;27;45488;-69
2021/11/01 06:18:46;;;;;;;;;0.00;0.00;;;;;;;;5077817;27;45565;-69
2021/11/01 06:21:16;;;;;;;;;1.00;1.00;;;;;;;;5072422;27;46484;-69
2021/11/01 06:23:42;;;;;;;;;0.75;0.00;;;;;;;;5075045;27;45409;-69
2021/11/01 06:26:07;;;;;;;;;1.00;1.00;;;;;;;;5080863;27;45388;-69
2021/11/01 06:28:33;;;;;;;;;1.00;1.00;;;;;;;;5084304;27;45589;-69
2021/11/01 06:31:02;;;;;;;;;2.00;1.00;;;;;;;;5090702;27;47391;-69
2021/11/01 06:49:45;;;;;;;;;2.00;1.50;;;;;;;;5065901;27;45500;-69
2021/11/01 07:18:49;;;;;;;;;1.00;1.00;;;;;;;;5075911;27;45437;-69
2021/11/01 08:24:05;;;;;;;;;1.50;0.00;;;;;;;;5072446;28;45395;-68
2021/11/01 08:48:06;;;;;;;;;0.50;0.25;;;;;;;;5036362;28;45382;-68
2021/11/01 09:19:52;;;;;;;;;0.00;0.00;;;;;;;;5044405;28;46313;-69
2021/11/01 09:22:53;;;;;;;;;0.00;0.00;;;;;;;;5045115;28;47483;-69
2021/11/01 09:25:15;;;;;;;;;0.75;0.00;;;;;;;;5047509;28;45717;-69
2021/11/01 09:27:44;;;;;;;;;0.75;0.00;;;;;;;;5048201;28;45398;-69
2021/11/01 09:30:26;;;;;;;;;0.75;0.00;;;;;;;;5046512;28;45544;-70
2021/11/01 09:35:48;;;;;;;;;1.25;0.00;;;;;;;;5062344;28;45504;-70
2021/11/01 09:43:18;;;;;;;;;0.75;0.00;;;;;;;;5067357;27;46039;-69
2021/11/01 09:45:44;;;;;;;;;1.00;1.00;;;;;;;;5066334;27;45535;-70
2021/11/01 09:48:09;;;;;;;;;1.25;1.25;;;;;;;;5065165;27;45587;-70
2021/11/01 09:50:35;;;;;;;;;0.00;0.00;;;;;;;;5060944;27;45422;-70
2021/11/01 09:53:06;;;;;;;;;1.50;0.00;;;;;;;;5063978;27;46260;-70
2021/11/01 10:00:48;;;;;;;;;0.50;0.00;;;;;;;;5065319;27;45342;-69
2021/11/01 10:03:14;;;;;;;;;1.33;1.00;;;;;;;;5058681;27;45346;-69
2021/11/01 10:05:42;;;;;;;;;0.00;0.00;;;;;;;;5062901;27;45713;-69
2021/11/01 10:08:17;;;;;;;;;1.25;0.75;;;;;;;;5060945;27;45570;-69
2021/11/01 10:10:42;;;;;;;;;0.00;0.00;;;;;;;;5063232;27;45529;-70
2021/11/01 10:13:11;;;;;;;;;1.00;0.00;;;;;;;;5058825;27;46358;-70
2021/11/01 10:18:20;;;;;;;;;1.25;0.75;;;;;;;;5060931;27;45496;-69
2021/11/01 10:20:50;;;;;;;;;0.00;0.00;;;;;;;;5039023;28;45715;-70
2021/11/01 10:23:17;;;;;;;;;2.50;0.50;;;;;;;;5039127;28;46630;-69
2021/11/01 10:25:42;;;;;;;;;2.00;0.00;;;;;;;;5042807;28;45518;-69
2021/11/01 10:28:07;;;;;;;;;1.33;0.00;;;;;;;;5021696;28;45366;-69
2021/11/01 10:30:36;;;;;;;;;1.00;0.00;;;;;;;;5043155;28;45406;-70
2021/11/01 10:33:03;;;;;;;;;0.50;0.00;;;;;;;;5059467;28;46685;-69
2021/11/01 10:35:30;;;;;;;;;0.75;0.00;;;;;;;;5055791;28;45657;-70
2021/11/01 10:47:04;;;;;;;;;1.00;1.00;;;;;;;;5051943;28;45391;-69
2021/11/01 11:11:33;;;;;;;;;1.25;0.50;;;;;;;;4964502;28;45798;-69
2021/11/01 11:19:49;;;;;;;;;0.00;0.00;;;;;;;;4997909;28;45471;-70
2021/11/01 11:28:01;;;;;;;;;2.75;0.50;;;;;;;;5005564;28;45505;-71
2021/11/01 11:47:03;;;;;;;;;0.75;0.00;;;;;;;;5028078;28;45537;-71
2021/11/01 11:47:26;;;;;;;;;1.00;1.00;;;;;;;;5031608;28;45430;-71
2021/11/01 11:49:53;;;;;;;;;0.25;0.00;;;;;;;;5026727;28;47183;-74
2021/11/01 11:52:20;;;;;;;;;1.75;0.00;;;;;;;;5027833;28;45717;-72
2021/11/01 11:54:50;;;;;;;;;1.25;0.00;;;;;;;;5024392;28;45906;-72
2021/11/01 11:57:18;;;;;;;;;0.50;0.50;;;;;;;;5029274;28;45665;-74
2021/11/01 11:59:45;;;;;;;;;0.25;0.00;;;;;;;;5031086;28;45670;-74
2021/11/01 12:02:11;;;;;;;;;1.25;0.50;;;;;;;;5026870;28;45622;-73
2021/11/01 12:04:45;;;;;;;;;0.33;0.00;;;;;;;;5027334;28;45670;-76
2021/11/01 12:07:13;;;;;;;;;4.25;0.00;;;;;;;;5027364;28;45817;-77
2021/11/01 12:09:51;;;;;;;;;0.75;0.00;;;;;;;;5030167;28;46921;-71
2021/11/01 12:17:29;;;;;;;;;0.50;0.50;;;;;;;;5028630;28;45490;-71
2021/11/01 12:20:06;;;;;;;;;3.75;0.00;;;;;;;;5065146;27;45451;-71
2021/11/01 12:22:33;;;;;;;;;0.50;0.00;;;;;;;;5066687;27;45460;-71
2021/11/01 12:25:00;;;;;;;;;2.25;1.00;;;;;;;;5061347;27;46083;-70
2021/11/01 12:27:27;;;;;;;;;1.50;0.00;;;;;;;;5064462;27;45409;-70
2021/11/01 12:29:52;;;;;;;;;0.25;0.00;;;;;;;;5060783;27;46619;-72
2021/11/01 12:32:18;;;;;;;;;2.33;0.00;;;;;;;;5064112;27;45540;-70
2021/11/01 12:35:05;;;;;;;;;2.00;1.00;;;;;;;;5071245;27;45523;-71
2021/11/01 12:37:46;;;;;;;;;0.00;0.00;;;;;;;;5064168;27;45378;-71
2021/11/01 12:43:14;;;;;;;;;0.00;0.00;;;;;;;;5068833;27;45473;-71
2021/11/01 12:59:30;;;;;;;;;2.00;0.00;;;;;;;;5065484;27;45751;-72
2021/11/01 13:01:56;;;;;;;;;0.75;0.00;;;;;;;;5067302;27;46151;-72
2021/11/01 13:04:36;;;;;;;;;0.00;0.00;;;;;;;;5068014;27;45499;-72
2021/11/01 13:07:07;;;;;;;;;0.00;0.00;;;;;;;;5067283;27;45552;-71
2021/11/01 13:09:35;;;;;;;;;4.00;0.50;;;;;;;;5062678;27;45510;-71
2021/11/01 13:19:54;;;;;;;;;0.00;0.00;;;;;;;;5065700;27;45488;-72
2021/11/01 13:22:31;;;;;;;;;0.00;0.00;;;;;;;;5059980;27;47247;-71
2021/11/01 13:25:05;;;;;;;;;1.25;1.25;;;;;;;;5056981;27;45681;-71
2021/11/01 13:37:41;;;;;;;;;2.00;0.00;;;;;;;;5059545;27;45479;-71
2021/11/01 13:40:09;;;;;;;;;0.75;0.75;;;;;;;;5063644;27;45747;-72
2021/11/01 13:42:34;;;;;;;;;0.00;0.00;;;;;;;;5053139;27;45480;-72
2021/11/01 13:45:06;;;;;;;;;3.00;1.00;;;;;;;;5066247;27;45662;-71
2021/11/01 13:47:51;;;;;;;;;1.00;1.00;;;;;;;;5061419;27;45565;-72
2021/11/01 13:50:18;;;;;;;;;1.00;1.00;;;;;;;;5061605;27;46445;-72
2021/11/01 13:53:07;;;;;;;;;0.00;0.00;;;;;;;;5095865;27;48043;-70
2021/11/01 13:55:58;;;;;;;;;1.25;0.50;;;;;;;;5066574;27;45813;-70
2021/11/01 14:01:21;;;;;;;;;0.00;0.00;;;;;;;;5071757;27;45614;-70
2021/11/01 14:12:06;;;;;;;;;2.50;0.00;;;;;;;;5063319;27;45480;-71
2021/11/01 14:28:54;;;;;;;;;1.00;0.00;;;;;;;;4919957;28;46083;-71
2021/11/01 15:08:45;;;;;;;;;0.00;0.00;;;;;;;;5069874;27;45436;-68
2021/11/01 15:16:38;;;;;;;;;0.67;0.67;;;;;;;;5075971;27;47174;-70
2021/11/01 15:19:15;;;;;;;;;1.00;1.00;;;;;;;;5063686;27;45975;-71
2021/11/01 15:22:16;;;;;;;;;2.00;0.00;;;;;;;;5060979;27;45643;-71
2021/11/01 16:18:13;;;;;;;;;1.00;0.00;;;;;;;;5067318;27;45429;-70
2021/11/01 16:20:39;;;;;;;;;0.00;0.00;;;;;;;;5051541;28;45747;-70
2021/11/01 16:25:30;;;;;;;;;2.50;1.75;;;;;;;;5047558;28;45434;-70
2021/11/01 16:27:55;;;;;;;;;0.00;0.00;;;;;;;;5059937;28;45423;-70
2021/11/01 16:30:23;;;;;;;;;1.00;1.00;;;;;;;;5056086;28;45540;-70
2021/11/01 16:32:53;;;;;;;;;1.00;0.00;;;;;;;;5052033;28;45437;-70
2021/11/01 16:35:22;;;;;;;;;2.50;1.00;;;;;;;;5039563;28;45374;-70
2021/11/01 16:37:58;;;;;;;;;1.75;1.00;;;;;;;;5042464;28;45481;-70
2021/11/01 16:40:23;;;;;;;;;2.00;2.00;;;;;;;;5053278;28;45707;-70
2021/11/01 16:42:49;;;;;;;;;2.00;2.00;;;;;;;;5041222;28;45606;-70
2021/11/01 16:45:25;;;;;;;;;3.00;3.00;;;;;;;;5046220;28;45531;-70
2021/11/01 16:47:50;;;;;;;;;4.00;4.00;;;;;;;;5058406;28;45551;-70
2021/11/01 16:50:16;;;;;;;;;6.25;4.00;;;;;;;;5056040;28;45515;-70
2021/11/01 16:52:44;;;;;;;;;4.75;3.00;;;;;;;;5047481;28;45637;-70
2021/11/01 16:55:20;;;;;;;;;4.50;3.75;;;;;;;;5051985;28;45690;-70
2021/11/01 16:57:48;;;;;;;;;3.25;3.00;;;;;;;;5054775;28;45473;-70
2021/11/01 17:03:07;;;;;;;;;2.25;1.75;;;;;;;;5049848;28;45888;-71
2021/11/01 18:45:49;;;;;;;;;14.50;13.75;;;;;;;;5062495;27;45440;-70
2021/11/01 18:53:38;;;;;;;;;26.75;19.50;;;;;;;;5068648;27;45896;-70
2021/11/01 18:56:09;;;;;;;;;19.00;17.75;;;;;;;;5065772;27;45527;-70
2021/11/01 18:58:36;;;;;;;;;25.00;20.00;;;;;;;;5069507;27;45394;-69
2021/11/01 19:01:02;;;;;;;;;23.25;20.50;;;;;;;;5068850;27;46396;-70
2021/11/01 19:03:31;;;;;;;;;23.50;19.75;;;;;;;;5076823;27;46013;-69
2021/11/01 19:06:22;;;;;;;;;23.25;21.00;;;;;;;;5075277;27;45646;-69
2021/11/01 20:05:43;;;;;;;;;46.00;36.00;;;;;;;;5074565;27;45438;-70
2021/11/01 21:24:50;;;;;;;;;36.75;31.50;;;;;;;;5068269;28;45329;-70
2021/11/01 21:27:22;;;;;;;;;38.00;31.25;;;;;;;;5061116;27;45533;-69
2021/11/01 21:29:48;;;;;;;;;29.50;24.50;;;;;;;;5070816;27;45756;-70
2021/11/01 21:32:13;;;;;;;;;24.75;22.25;;;;;;;;5063596;27;46373;-70
2021/11/01 21:34:42;;;;;;;;;23.25;19.75;;;;;;;;5060327;27;45453;-69
2021/11/01 21:37:08;;;;;;;;;18.50;16.25;;;;;;;;5066749;27;45886;-69
2021/11/01 21:39:33;;;;;;;;;24.00;20.00;;;;;;;;5075263;27;45513;-69
2021/11/01 21:42:00;;;;;;;;;20.00;17.50;;;;;;;;5071945;27;47287;-70
2021/11/01 21:44:25;;;;;;;;;16.00;15.75;;;;;;;;5068066;28;45923;-70
2021/11/01 21:46:50;;;;;;;;;24.00;20.00;;;;;;;;5069711;27;45547;-70
2021/11/01 21:49:15;;;;;;;;;16.00;13.33;;;;;;;;5063826;27;45767;-70
2021/11/01 21:51:44;;;;;;;;;19.25;15.25;;;;;;;;5069434;27;47384;-72
2021/11/01 21:56:44;;;;;;;;;19.50;16.50;;;;;;;;5068461;27;46115;-72
2021/11/01 21:59:24;;;;;;;;;20.25;17.25;;;;;;;;5070223;27;45433;-71
2021/11/01 22:18:15;;;;;;;;;15.25;13.75;;;;;;;;5029459;28;45547;-71
2021/11/01 22:20:45;;;;;;;;;15.25;12.00;;;;;;;;5025949;28;45544;-71
2021/11/01 22:23:14;;;;;;;;;15.50;14.00;;;;;;;;5026572;28;45849;-71
2021/11/01 22:26:04;;;;;;;;;15.75;13.50;;;;;;;;5029117;28;45608;-71
2021/11/01 22:55:34;;;;;;;;;12.00;12.00;;;;;;;;5079496;27;45476;-70
2021/11/01 22:58:04;;;;;;;;;15.00;11.25;;;;;;;;5082679;27;45428;-70
2021/11/01 23:00:32;;;;;;;;;18.25;8.25;;;;;;;;5081980;27;45459;-70
2021/11/01 23:03:03;;;;;;;;;13.00;10.00;;;;;;;;5073740;27;45429;-70
2021/11/01 23:32:35;;;;;;;;;15.50;8.00;;;;;;;;5050975;28;45592;-70
2021/11/01 23:35:01;;;;;;;;;8.00;8.00;;;;;;;;5051404;28;45454;-70
2021/11/01 23:37:26;;;;;;;;;12.00;8.00;;;;;;;;5052860;28;46085;-70
2021/11/01 23:39:51;;;;;;;;;9.33;7.67;;;;;;;;5036838;28;45418;-70
2021/11/01 23:42:16;;;;;;;;;7.67;7.67;;;;;;;;5053964;28;45354;-70
2021/11/01 23:44:42;;;;;;;;;12.00;7.00;;;;;;;;5053328;28;45391;-70
2021/11/01 23:47:07;;;;;;;;;9.50;8.00;;;;;;;;5060757;27;45513;-69
2021/11/01 23:49:32;;;;;;;;;8.00;7.33;;;;;;;;5080652;27;45508;-70
2021/11/01 23:52:08;;;;;;;;;7.00;6.25;;;;;;;;5081697;27;45562;-69
2021/11/01 23:54:39;;;;;;;;;4.75;4.75;;;;;;;;5081732;27;45494;-70
2021/11/01 23:57:04;;;;;;;;;9.50;8.00;;;;;;;;5081154;27;45571;-70
2021/11/01 23:59:29;;;;;;;;;4.00;4.00;;;;;;;;5079502;27;45522;-70
